Time;durP1;ratioP1;P1;durP2;ratioP2;P2;SDS_P1;SDS_P2;PMS_P1;PMS_P2;Temp;Humidity;BMP_temperature;BMP_pressure;BME280_temperature;BME280_humidity;BME280_pressure;Samples;Min_cycle;Max_cycle;Signal;HPM_P1;HPM_P2
2021/10/20 00:02:22;;;;;;;0.88;0.45;;;17.60;99.90;;;;;;4919897;29;20487;-85
2021/10/20 00:04:48;;;;;;;0.20;0.20;;;17.60;99.90;;;;;;4936156;29;20020;-85
2021/10/20 00:07:13;;;;;;;0.82;0.30;;;17.60;99.90;;;;;;4936959;29;20486;-83
2021/10/20 00:09:39;;;;;;;1.50;1.00;;;17.60;99.90;;;;;;4937078;29;20028;-84
2021/10/20 00:12:05;;;;;;;0.10;0.10;;;17.50;99.90;;;;;;4936683;29;20032;-83
2021/10/20 00:14:31;;;;;;;0.28;0.28;;;17.50;99.90;;;;;;4919734;29;20300;-84
2021/10/20 00:16:57;;;;;;;0.15;0.15;;;17.50;99.90;;;;;;4919742;29;20554;-83
2021/10/20 00:19:23;;;;;;;0.35;0.32;;;17.50;99.90;;;;;;4935843;29;20091;-83
2021/10/20 00:21:48;;;;;;;0.35;0.35;;;17.50;99.90;;;;;;4936826;29;20455;-84
2021/10/20 00:24:14;;;;;;;0.28;0.17;;;17.40;99.90;;;;;;4935533;29;20028;-84
2021/10/20 00:26:40;;;;;;;5.20;1.65;;;17.40;99.90;;;;;;4936346;29;20055;-84
2021/10/20 00:29:05;;;;;;;1.10;0.20;;;17.30;99.90;;;;;;4936645;29;20079;-84
2021/10/20 00:31:31;;;;;;;0.20;0.20;;;17.30;99.90;;;;;;4935542;29;20063;-84
2021/10/20 00:33:56;;;;;;;0.38;0.38;;;17.30;99.90;;;;;;4936573;29;20403;-82
2021/10/20 00:36:22;;;;;;;0.15;0.15;;;17.30;99.90;;;;;;4936276;29;20047;-83
2021/10/20 00:38:48;;;;;;;0.30;0.30;;;17.30;99.90;;;;;;4936395;29;20038;-84
2021/10/20 00:41:14;;;;;;;0.13;0.13;;;17.30;99.90;;;;;;4936277;29;20020;-82
2021/10/20 00:43:41;;;;;;;0.40;0.40;;;17.30;99.90;;;;;;4935851;29;20160;-84
2021/10/20 00:46:06;;;;;;;0.25;0.25;;;17.20;99.90;;;;;;4936355;29;20063;-84
2021/10/20 00:48:32;;;;;;;0.10;0.10;;;17.20;99.90;;;;;;4934864;29;20062;-84
2021/10/20 00:50:58;;;;;;;0.43;0.43;;;17.20;99.90;;;;;;4936653;29;20031;-83
2021/10/20 00:53:24;;;;;;;1.77;0.70;;;17.10;99.90;;;;;;4918721;29;20511;-83
2021/10/20 00:55:50;;;;;;;0.55;0.55;;;17.10;99.90;;;;;;4936026;29;20024;-84
2021/10/20 00:58:17;;;;;;;1.05;0.47;;;17.10;99.90;;;;;;4936009;29;20035;-83
2021/10/20 01:00:42;;;;;;;0.20;0.20;;;17.10;99.90;;;;;;4936183;29;20035;-84
2021/10/20 01:03:08;;;;;;;1.27;0.82;;;17.10;99.90;;;;;;4936006;29;20487;-84
2021/10/20 01:05:34;;;;;;;0.20;0.20;;;17.10;99.90;;;;;;4934845;29;20409;-83
2021/10/20 01:08:00;;;;;;;1.75;1.05;;;17.20;99.90;;;;;;4936082;29;20035;-83
2021/10/20 01:10:26;;;;;;;1.05;1.05;;;17.30;99.90;;;;;;4934881;29;20028;-83
2021/10/20 01:12:51;;;;;;;0.00;0.00;;;17.30;99.90;;;;;;4935571;29;20046;-83
2021/10/20 01:15:21;;;;;;;0.80;0.10;;;17.20;99.90;;;;;;4935666;29;20032;-83
2021/10/20 01:17:47;;;;;;;0.08;0.08;;;17.20;99.90;;;;;;4935802;29;20024;-84
2021/10/20 01:20:13;;;;;;;0.20;0.10;;;17.20;99.90;;;;;;4931223;29;20036;-83
2021/10/20 01:22:40;;;;;;;1.13;0.38;;;17.20;99.90;;;;;;4916761;29;20024;-83
2021/10/20 01:25:06;;;;;;;0.13;0.13;;;17.20;99.90;;;;;;4916529;29;20085;-86
2021/10/20 01:27:32;;;;;;;0.10;0.10;;;17.20;99.90;;;;;;4916272;29;20490;-85
2021/10/20 01:29:59;;;;;;;0.95;0.70;;;17.20;99.90;;;;;;4916677;29;20062;-83
2021/10/20 01:32:26;;;;;;;0.43;0.38;;;17.20;99.90;;;;;;4918803;29;20391;-84
2021/10/20 01:34:53;;;;;;;0.30;0.30;;;17.20;99.90;;;;;;4935024;29;20031;-84
2021/10/20 01:37:20;;;;;;;0.10;0.10;;;17.10;99.90;;;;;;4935114;29;20107;-83
2021/10/20 01:39:46;;;;;;;2.28;0.98;;;17.20;99.90;;;;;;4935448;29;20020;-83
2021/10/20 01:42:12;;;;;;;0.10;0.10;;;17.20;99.90;;;;;;4935172;29;20039;-84
2021/10/20 01:44:37;;;;;;;0.10;0.10;;;17.20;99.90;;;;;;4935602;29;20031;-84
2021/10/20 01:47:04;;;;;;;0.10;0.10;;;17.20;99.90;;;;;;4935115;29;20027;-83
2021/10/20 01:49:30;;;;;;;0.15;0.15;;;17.30;99.90;;;;;;4935372;29;20020;-84
2021/10/20 01:51:56;;;;;;;0.38;0.13;;;17.30;99.90;;;;;;4935072;29;20059;-83
2021/10/20 01:54:22;;;;;;;0.30;0.30;;;17.40;99.90;;;;;;4917779;29;20032;-83
2021/10/20 01:56:48;;;;;;;0.40;0.40;;;17.40;99.90;;;;;;4934898;29;20032;-83
2021/10/20 01:59:14;;;;;;;0.45;0.45;;;17.40;99.90;;;;;;4918098;29;20035;-84
2021/10/20 02:01:40;;;;;;;0.98;0.63;;;17.40;99.90;;;;;;4935179;29;20076;-83
2021/10/20 02:04:13;;;;;;;0.47;0.43;;;17.40;99.90;;;;;;4935099;29;20562;-84
2021/10/20 02:06:43;;;;;;;0.28;0.28;;;17.40;99.90;;;;;;4934654;29;20614;-83
2021/10/20 02:09:12;;;;;;;0.38;0.17;;;17.40;99.90;;;;;;4935132;29;20016;-84
2021/10/20 02:11:39;;;;;;;0.00;0.00;;;17.40;99.90;;;;;;4933497;29;20035;-83
2021/10/20 02:14:06;;;;;;;0.35;0.30;;;17.40;99.90;;;;;;4934711;29;20110;-84
2021/10/20 02:16:32;;;;;;;0.13;0.13;;;17.40;99.90;;;;;;4917797;29;20035;-84
2021/10/20 02:18:58;;;;;;;0.10;0.10;;;17.40;99.90;;;;;;4935062;29;20030;-83
2021/10/20 02:21:24;;;;;;;0.10;0.10;;;17.40;99.90;;;;;;4935001;29;20027;-82
2021/10/20 02:23:50;;;;;;;0.28;0.20;;;17.40;99.90;;;;;;4935044;29;20031;-83
2021/10/20 02:26:15;;;;;;;2.97;0.85;;;17.40;99.90;;;;;;4934394;29;20031;-82
2021/10/20 02:28:41;;;;;;;0.38;0.38;;;17.40;99.90;;;;;;4917985;29;20016;-82
2021/10/20 02:31:07;;;;;;;0.50;0.50;;;17.50;99.90;;;;;;4917938;29;20406;-83
2021/10/20 02:33:33;;;;;;;0.60;0.60;;;17.50;99.90;;;;;;4934866;29;20028;-83
2021/10/20 02:35:58;;;;;;;3.35;0.50;;;17.50;99.90;;;;;;4934877;29;20055;-83
2021/10/20 02:38:25;;;;;;;1.55;0.30;;;17.40;99.90;;;;;;4934881;29;20056;-82
2021/10/20 02:40:51;;;;;;;1.38;0.98;;;17.40;99.90;;;;;;4934702;29;20028;-82
2021/10/20 02:43:17;;;;;;;0.20;0.17;;;17.40;99.90;;;;;;4937059;29;20035;-82
2021/10/20 02:45:44;;;;;;;0.00;0.00;;;17.40;99.90;;;;;;4938785;29;20031;-82
2021/10/20 02:48:10;;;;;;;0.30;0.30;;;17.40;99.90;;;;;;4938340;29;20099;-83
2021/10/20 02:50:36;;;;;;;0.10;0.10;;;17.40;99.90;;;;;;4938576;29;20098;-82
2021/10/20 02:53:02;;;;;;;0.32;0.30;;;17.30;99.90;;;;;;4937831;29;20494;-83
2021/10/20 02:55:29;;;;;;;0.43;0.43;;;17.30;99.90;;;;;;4921387;29;20509;-82
2021/10/20 02:57:55;;;;;;;1.35;0.75;;;17.30;99.90;;;;;;4938170;29;20090;-82
2021/10/20 03:00:21;;;;;;;0.20;0.17;;;17.20;99.90;;;;;;4938374;29;20483;-82
2021/10/20 03:02:46;;;;;;;0.15;0.15;;;17.20;99.90;;;;;;4938291;29;20032;-83
2021/10/20 03:05:12;;;;;;;0.00;0.00;;;17.20;99.90;;;;;;4920081;29;20042;-82
2021/10/20 03:07:38;;;;;;;2.53;0.60;;;17.20;99.90;;;;;;4938063;29;20042;-82
2021/10/20 03:10:04;;;;;;;0.20;0.20;;;17.20;99.90;;;;;;4938117;29;20027;-83
2021/10/20 03:12:30;;;;;;;13.27;1.90;;;17.10;99.90;;;;;;4937830;29;20046;-82
2021/10/20 03:14:56;;;;;;;1.27;0.93;;;17.10;99.90;;;;;;4937979;29;20028;-82
2021/10/20 03:17:24;;;;;;;0.35;0.35;;;17.10;99.90;;;;;;4920693;29;20041;-82
2021/10/20 03:19:50;;;;;;;0.80;0.30;;;17.10;99.90;;;;;;4937972;29;20110;-82
2021/10/20 03:22:15;;;;;;;11.27;1.25;;;17.10;99.90;;;;;;4937746;29;20031;-82
2021/10/20 03:24:41;;;;;;;0.00;0.00;;;17.10;99.90;;;;;;4937855;29;20286;-82
2021/10/20 03:27:07;;;;;;;0.05;0.05;;;17.10;99.90;;;;;;4937714;29;20058;-83
2021/10/20 03:29:32;;;;;;;0.47;0.47;;;17.10;99.90;;;;;;4937794;29;20393;-82
2021/10/20 03:31:58;;;;;;;0.28;0.28;;;17.10;99.90;;;;;;4937882;29;20036;-81
2021/10/20 03:34:24;;;;;;;1.05;0.55;;;17.10;99.90;;;;;;4936113;29;20047;-82
2021/10/20 03:36:49;;;;;;;0.00;0.00;;;17.10;99.90;;;;;;4936237;29;20549;-82
2021/10/20 03:39:15;;;;;;;1.13;0.43;;;17.10;99.90;;;;;;4920433;29;20032;-82
2021/10/20 03:41:41;;;;;;;0.82;0.55;;;17.00;99.90;;;;;;4937365;29;20032;-82
2021/10/20 03:44:06;;;;;;;3.20;1.75;;;17.00;99.90;;;;;;4937539;29;20162;-83
2021/10/20 03:46:32;;;;;;;0.55;0.35;;;17.00;99.90;;;;;;4937657;29;20023;-83
2021/10/20 03:48:58;;;;;;;0.38;0.38;;;16.90;99.90;;;;;;4937346;29;20446;-83
2021/10/20 03:51:23;;;;;;;0.95;0.57;;;16.90;99.90;;;;;;4937008;29;20047;-82
2021/10/20 03:53:49;;;;;;;3.05;0.68;;;16.90;99.90;;;;;;4935804;29;20483;-83
2021/10/20 03:56:14;;;;;;;0.93;0.43;;;16.90;99.90;;;;;;4937137;29;20039;-83
2021/10/20 03:58:40;;;;;;;0.85;0.40;;;16.90;99.90;;;;;;4937212;29;20050;-83
2021/10/20 04:01:06;;;;;;;0.30;0.30;;;16.90;99.90;;;;;;4937175;29;20023;-83
2021/10/20 04:03:31;;;;;;;1.70;0.63;;;16.90;99.90;;;;;;4937026;29;20039;-83
2021/10/20 04:05:57;;;;;;;13.80;0.60;;;16.90;99.90;;;;;;4935899;29;20031;-82
2021/10/20 04:08:23;;;;;;;0.35;0.30;;;16.90;99.90;;;;;;4937005;29;20454;-82
2021/10/20 04:10:50;;;;;;;0.30;0.30;;;17.00;99.90;;;;;;4935864;29;20072;-82
2021/10/20 04:13:15;;;;;;;0.70;0.55;;;17.10;99.90;;;;;;4936844;29;20082;-83
2021/10/20 04:15:41;;;;;;;1.23;0.80;;;17.00;99.90;;;;;;4936821;29;20483;-83
2021/10/20 04:18:07;;;;;;;0.05;0.05;;;17.10;99.90;;;;;;4936832;29;20546;-83
2021/10/20 04:20:33;;;;;;;0.00;0.00;;;17.00;99.90;;;;;;4936426;29;20031;-83
2021/10/20 04:22:58;;;;;;;0.95;0.90;;;17.00;99.90;;;;;;4936335;29;20467;-83
2021/10/20 04:25:24;;;;;;;0.75;0.75;;;17.00;99.90;;;;;;4936506;29;20024;-83
2021/10/20 04:27:51;;;;;;;0.25;0.25;;;17.00;99.90;;;;;;4936586;29;20130;-83
2021/10/20 04:30:18;;;;;;;0.30;0.30;;;17.00;99.90;;;;;;4919658;29;20024;-82
2021/10/20 04:32:45;;;;;;;6.22;1.70;;;17.00;99.90;;;;;;4936662;29;20039;-82
2021/10/20 04:35:11;;;;;;;0.45;0.45;;;17.00;99.90;;;;;;4936509;29;20052;-83
2021/10/20 04:37:38;;;;;;;7.80;0.73;;;17.00;99.90;;;;;;4936505;29;20186;-83
2021/10/20 04:40:06;;;;;;;1.05;0.30;;;17.00;99.90;;;;;;4936567;29;20062;-83
2021/10/20 04:42:33;;;;;;;1.23;1.13;;;17.10;99.90;;;;;;4919225;29;20036;-82
2021/10/20 04:44:59;;;;;;;1.75;0.75;;;17.00;99.90;;;;;;4936263;29;20028;-83
2021/10/20 04:47:25;;;;;;;0.00;0.00;;;17.10;99.90;;;;;;4936099;29;20059;-83
2021/10/20 04:49:51;;;;;;;1.05;0.15;;;17.10;99.90;;;;;;4936401;29;20442;-83
2021/10/20 04:52:22;;;;;;;0.35;0.35;;;17.10;99.90;;;;;;4934492;29;20031;-83
2021/10/20 04:54:48;;;;;;;0.13;0.13;;;17.10;99.90;;;;;;4935052;29;20055;-83
2021/10/20 04:57:14;;;;;;;1.30;0.13;;;17.20;99.90;;;;;;4936118;29;20596;-83
2021/10/20 04:59:39;;;;;;;0.95;0.38;;;17.20;99.90;;;;;;4929075;29;20036;-83
2021/10/20 05:02:05;;;;;;;0.82;0.57;;;17.20;99.90;;;;;;4932540;29;20038;-83
2021/10/20 05:04:31;;;;;;;0.32;0.20;;;17.20;99.90;;;;;;4935712;29;20024;-83
2021/10/20 05:06:57;;;;;;;0.08;0.08;;;17.20;99.90;;;;;;4934913;29;20028;-83
2021/10/20 05:09:23;;;;;;;0.25;0.25;;;17.20;99.90;;;;;;4934306;29;20082;-83
2021/10/20 05:11:49;;;;;;;4.28;1.27;;;17.20;99.90;;;;;;4935629;29;20471;-83
2021/10/20 05:14:15;;;;;;;0.10;0.10;;;17.30;99.90;;;;;;4935679;29;20027;-83
2021/10/20 05:16:40;;;;;;;0.57;0.57;;;17.30;99.90;;;;;;4935669;29;20028;-83
2021/10/20 05:19:06;;;;;;;0.25;0.20;;;17.30;99.90;;;;;;4935404;29;20020;-83
2021/10/20 05:21:32;;;;;;;0.20;0.20;;;17.30;99.90;;;;;;4934311;29;20032;-82
2021/10/20 05:23:57;;;;;;;0.75;0.40;;;17.40;99.90;;;;;;4918337;29;20115;-83
2021/10/20 05:26:23;;;;;;;3.67;1.55;;;17.40;99.90;;;;;;4934859;29;20035;-83
2021/10/20 05:28:49;;;;;;;0.38;0.30;;;17.40;99.90;;;;;;4929063;29;20490;-83
2021/10/20 05:31:15;;;;;;;0.30;0.28;;;17.40;99.90;;;;;;4934996;29;20028;-83
2021/10/20 05:33:40;;;;;;;0.08;0.08;;;17.30;99.90;;;;;;4935037;29;20055;-83
2021/10/20 05:36:08;;;;;;;1.45;1.02;;;17.40;99.90;;;;;;4930708;29;20075;-83
2021/10/20 05:38:34;;;;;;;0.30;0.30;;;17.40;99.90;;;;;;4916074;29;20115;-83
2021/10/20 05:41:00;;;;;;;2.22;0.40;;;17.40;99.90;;;;;;4916220;29;20040;-82
2021/10/20 05:43:26;;;;;;;1.25;1.15;;;17.40;99.90;;;;;;4915870;29;20387;-82
2021/10/20 05:45:51;;;;;;;0.30;0.22;;;17.20;99.90;;;;;;4916285;29;20088;-82
2021/10/20 05:48:22;;;;;;;0.38;0.38;;;17.20;99.90;;;;;;4915942;29;20032;-81
2021/10/20 05:50:48;;;;;;;1.77;1.50;;;17.10;99.90;;;;;;4916175;29;20024;-82
2021/10/20 05:53:13;;;;;;;0.20;0.20;;;17.00;99.90;;;;;;4915736;29;20103;-82
2021/10/20 05:55:40;;;;;;;2.60;0.60;;;17.00;99.90;;;;;;4916272;29;20082;-82
2021/10/20 05:58:07;;;;;;;1.17;0.40;;;17.00;99.90;;;;;;4914139;29;20028;-82
2021/10/20 06:00:33;;;;;;;2.13;0.75;;;17.10;99.90;;;;;;4915128;29;20051;-82
2021/10/20 06:02:59;;;;;;;0.38;0.28;;;17.20;99.90;;;;;;4914158;29;20055;-82
2021/10/20 06:05:24;;;;;;;0.38;0.38;;;17.30;99.90;;;;;;4912691;29;20032;-80
2021/10/20 06:07:51;;;;;;;0.50;0.50;;;17.30;99.90;;;;;;4910654;29;20035;-82
2021/10/20 06:10:16;;;;;;;3.50;1.35;;;17.20;99.90;;;;;;4918498;29;20483;-82
2021/10/20 06:12:43;;;;;;;2.70;0.30;;;17.20;99.90;;;;;;4914529;29;20039;-82
2021/10/20 06:15:09;;;;;;;0.75;0.35;;;17.20;99.90;;;;;;4914562;29;20028;-82
2021/10/20 06:17:36;;;;;;;1.00;0.85;;;17.20;99.90;;;;;;4915207;29;20028;-82
2021/10/20 06:20:05;;;;;;;3.30;0.85;;;17.20;99.90;;;;;;4932605;29;20024;-83
2021/10/20 06:22:31;;;;;;;1.75;0.82;;;17.20;99.90;;;;;;4915682;29;20043;-82
2021/10/20 06:24:57;;;;;;;0.10;0.10;;;17.20;99.90;;;;;;4916082;29;20032;-82
2021/10/20 06:27:23;;;;;;;2.13;1.00;;;17.20;99.90;;;;;;4920433;29;20103;-82
2021/10/20 06:29:49;;;;;;;6.00;1.10;;;17.10;99.90;;;;;;4923004;29;20047;-83
2021/10/20 06:32:14;;;;;;;5.57;0.47;;;17.00;99.90;;;;;;4914962;29;20024;-83
2021/10/20 06:34:40;;;;;;;6.07;2.10;;;17.00;99.90;;;;;;4930209;29;20036;-84
2021/10/20 06:37:05;;;;;;;0.40;0.40;;;17.00;99.90;;;;;;4932643;29;20043;-84
2021/10/20 06:39:31;;;;;;;0.52;0.52;;;17.00;99.90;;;;;;4934349;29;20035;-83
2021/10/20 06:41:57;;;;;;;0.70;0.35;;;16.90;99.90;;;;;;4934516;29;20094;-83
2021/10/20 06:44:24;;;;;;;0.88;0.30;;;17.00;99.90;;;;;;4939403;29;20102;-83
2021/10/20 06:46:50;;;;;;;0.20;0.20;;;17.00;99.90;;;;;;4942960;29;20470;-82
2021/10/20 06:49:16;;;;;;;2.78;0.60;;;17.10;99.90;;;;;;4934956;29;20055;-82
2021/10/20 06:51:42;;;;;;;12.13;0.50;;;17.10;99.90;;;;;;4935371;29;20043;-82
2021/10/20 06:54:08;;;;;;;16.50;0.95;;;17.10;99.90;;;;;;4934315;29;20039;-83
2021/10/20 06:56:33;;;;;;;1.10;0.52;;;17.20;99.90;;;;;;4936769;29;20027;-84
2021/10/20 06:58:59;;;;;;;7.03;2.58;;;17.20;99.90;;;;;;4933032;29;20026;-82
2021/10/20 07:01:25;;;;;;;3.70;1.58;;;17.20;99.90;;;;;;4935572;29;20083;-82
2021/10/20 07:03:50;;;;;;;0.93;0.70;;;17.30;99.90;;;;;;4933654;29;20422;-79
2021/10/20 07:06:16;;;;;;;9.70;1.08;;;17.30;99.90;;;;;;4932763;29;20757;-78
2021/10/20 07:08:42;;;;;;;1.70;1.38;;;17.30;99.90;;;;;;4929098;29;20039;-81
2021/10/20 07:11:07;;;;;;;3.85;0.95;;;17.30;99.90;;;;;;4931450;29;20135;-79
2021/10/20 07:13:33;;;;;;;5.88;2.13;;;17.30;99.90;;;;;;4930327;29;20134;-80
2021/10/20 07:15:59;;;;;;;1.50;1.40;;;17.40;99.90;;;;;;4935696;29;20419;-80
2021/10/20 07:18:27;;;;;;;3.03;1.85;;;17.40;99.90;;;;;;4929887;29;20399;-78
2021/10/20 07:20:53;;;;;;;0.80;0.80;;;17.40;99.90;;;;;;4934334;29;20024;-79
2021/10/20 07:23:19;;;;;;;0.40;0.35;;;17.50;99.90;;;;;;4917263;29;20404;-79
2021/10/20 07:25:45;;;;;;;0.88;0.65;;;17.50;99.90;;;;;;4946970;29;20038;-77
2021/10/20 07:28:11;;;;;;;2.72;0.52;;;17.50;99.90;;;;;;4935008;29;20026;-78
2021/10/20 07:30:37;;;;;;;1.75;1.13;;;17.50;99.90;;;;;;4917262;29;20043;-78
2021/10/20 07:33:04;;;;;;;5.80;0.60;;;17.60;99.90;;;;;;4935245;29;20023;-80
2021/10/20 07:35:30;;;;;;;0.85;0.85;;;17.60;99.90;;;;;;4937737;29;20051;-79
2021/10/20 07:37:55;;;;;;;9.68;1.65;;;17.60;99.90;;;;;;4934371;29;20768;-80
2021/10/20 07:40:21;;;;;;;1.05;0.52;;;17.60;99.90;;;;;;4936114;29;20039;-82
2021/10/20 07:42:47;;;;;;;0.80;0.35;;;17.70;99.90;;;;;;4934393;29;20062;-79
2021/10/20 07:45:15;;;;;;;1.55;1.27;;;17.60;99.90;;;;;;4937111;29;20027;-79
2021/10/20 07:47:42;;;;;;;2.58;1.35;;;17.60;99.90;;;;;;4935105;29;20038;-80
2021/10/20 07:50:09;;;;;;;0.30;0.30;;;17.70;99.90;;;;;;4936999;29;20055;-80
2021/10/20 07:52:35;;;;;;;2.08;1.85;;;17.70;99.90;;;;;;4934135;29;20118;-80
2021/10/20 07:55:03;;;;;;;2.72;1.23;;;17.70;99.90;;;;;;4917244;29;20406;-83
2021/10/20 07:57:29;;;;;;;4.38;0.88;;;17.70;99.90;;;;;;4945191;29;20067;-79
2021/10/20 07:59:55;;;;;;;2.08;0.68;;;17.70;99.90;;;;;;4939887;29;20027;-80
2021/10/20 08:02:21;;;;;;;1.27;0.73;;;17.70;99.90;;;;;;4941029;29;20586;-78
2021/10/20 08:04:47;;;;;;;1.13;0.63;;;17.70;99.90;;;;;;4940757;29;20517;-78
2021/10/20 08:07:13;;;;;;;0.47;0.47;;;17.70;99.90;;;;;;4932061;29;20414;-80
2021/10/20 08:09:39;;;;;;;1.65;0.60;;;17.70;99.90;;;;;;4943350;29;20138;-79
2021/10/20 08:12:05;;;;;;;0.03;0.03;;;17.80;99.90;;;;;;4938630;29;20098;-80
2021/10/20 08:14:32;;;;;;;7.45;1.25;;;17.80;99.90;;;;;;4933466;29;20024;-79
2021/10/20 08:16:58;;;;;;;2.53;1.95;;;17.80;99.90;;;;;;4937803;29;20030;-80
2021/10/20 08:19:23;;;;;;;0.47;0.47;;;17.90;99.90;;;;;;4933688;29;20103;-79
2021/10/20 08:21:49;;;;;;;0.57;0.57;;;17.90;99.90;;;;;;4933765;29;20024;-83
2021/10/20 08:24:15;;;;;;;10.95;4.47;;;17.90;99.90;;;;;;4935854;29;20035;-79
2021/10/20 08:26:40;;;;;;;6.47;1.90;;;17.90;99.90;;;;;;4934681;29;20127;-79
2021/10/20 08:29:07;;;;;;;12.48;1.95;;;17.90;99.90;;;;;;4934480;29;20031;-80
2021/10/20 08:31:33;;;;;;;3.42;2.30;;;17.90;99.90;;;;;;4941054;29;20024;-79
2021/10/20 08:33:59;;;;;;;1.40;0.82;;;18.00;99.90;;;;;;4933845;29;20032;-79
2021/10/20 08:36:25;;;;;;;9.02;2.28;;;18.10;99.90;;;;;;4938660;29;20086;-78
2021/10/20 08:38:50;;;;;;;3.15;0.93;;;18.20;99.90;;;;;;4939115;29;20032;-78
2021/10/20 08:41:16;;;;;;;0.68;0.68;;;18.40;99.90;;;;;;4935172;29;20039;-79
2021/10/20 08:43:42;;;;;;;0.77;0.68;;;18.60;99.90;;;;;;4916215;29;20040;-79
2021/10/20 08:46:07;;;;;;;0.10;0.10;;;18.70;99.90;;;;;;4935376;29;20023;-77
2021/10/20 08:48:35;;;;;;;2.75;0.85;;;18.60;99.90;;;;;;4932985;29;20402;-78
2021/10/20 08:51:03;;;;;;;0.52;0.40;;;18.80;99.90;;;;;;4938300;29;20482;-78
2021/10/20 08:53:29;;;;;;;21.92;0.47;;;19.00;99.90;;;;;;4931883;29;20042;-77
2021/10/20 08:55:55;;;;;;;0.52;0.52;;;19.10;99.90;;;;;;4936608;29;20171;-78
2021/10/20 08:58:22;;;;;;;1.67;0.98;;;19.10;99.90;;;;;;4936638;29;20039;-76
2021/10/20 09:00:48;;;;;;;35.88;1.15;;;19.00;99.90;;;;;;4934653;29;20035;-78
2021/10/20 09:03:14;;;;;;;2.83;1.13;;;18.90;99.90;;;;;;4934031;29;20414;-78
2021/10/20 09:05:40;;;;;;;0.73;0.73;;;18.90;99.90;;;;;;4931715;29;20028;-77
2021/10/20 09:08:06;;;;;;;2.35;1.55;;;18.80;99.90;;;;;;4928902;29;20035;-77
2021/10/20 09:10:33;;;;;;;0.90;0.90;;;18.70;99.90;;;;;;4933837;29;20111;-77
2021/10/20 09:13:00;;;;;;;0.10;0.10;;;18.60;99.90;;;;;;4936777;29;20471;-75
2021/10/20 09:15:29;;;;;;;1.65;0.55;;;18.60;99.90;;;;;;4936164;29;20110;-76
2021/10/20 09:17:57;;;;;;;6.80;1.38;;;18.60;99.90;;;;;;4933284;29;20032;-78
2021/10/20 09:20:32;;;;;;;15.20;0.65;;;18.50;99.90;;;;;;4930099;29;20083;-75
2021/10/20 09:23:09;;;;;;;1.13;0.57;;;18.50;99.90;;;;;;4932762;29;20039;-77
2021/10/20 09:25:37;;;;;;;1.90;1.23;;;18.60;99.90;;;;;;4930788;29;20032;-77
2021/10/20 09:28:12;;;;;;;8.38;1.00;;;18.90;99.90;;;;;;4929467;29;20438;-78
2021/10/20 09:30:40;;;;;;;1.40;1.30;;;19.10;99.90;;;;;;4931655;29;20028;-74
2021/10/20 09:33:08;;;;;;;3.22;2.22;;;19.30;99.90;;;;;;4934382;29;20031;-78
2021/10/20 09:35:34;;;;;;;1.42;0.88;;;19.40;99.90;;;;;;4930905;29;20112;-78
2021/10/20 09:38:01;;;;;;;3.92;1.67;;;19.50;99.90;;;;;;4932714;29;20047;-77
2021/10/20 09:40:37;;;;;;;0.15;0.15;;;19.80;99.90;;;;;;4932632;29;20042;-78
2021/10/20 09:43:03;;;;;;;2.05;1.05;;;19.80;99.90;;;;;;4933222;29;20043;-79
2021/10/20 09:45:34;;;;;;;3.08;0.75;;;19.60;99.90;;;;;;4922061;29;20454;-78
2021/10/20 09:48:10;;;;;;;1.00;0.88;;;19.50;99.90;;;;;;4933313;29;20027;-76
2021/10/20 09:50:52;;;;;;;5.22;0.85;;;19.60;99.90;;;;;;4932998;29;20042;-79
2021/10/20 09:53:18;;;;;;;1.10;0.75;;;19.70;99.90;;;;;;4936541;29;20384;-77
2021/10/20 09:55:44;;;;;;;3.53;0.65;;;19.60;99.90;;;;;;4932989;29;20035;-75
2021/10/20 09:58:14;;;;;;;0.68;0.68;;;19.50;99.90;;;;;;4932661;29;20034;-75
2021/10/20 10:00:41;;;;;;;1.55;0.93;;;19.60;99.90;;;;;;4923280;29;20039;-76
2021/10/20 10:03:09;;;;;;;1.65;1.30;;;19.90;99.90;;;;;;4909759;29;20126;-75
2021/10/20 10:05:35;;;;;;;2.47;1.05;;;19.90;99.90;;;;;;4920220;29;20016;-76
2021/10/20 10:08:02;;;;;;;3.53;0.38;;;20.00;99.90;;;;;;4935162;29;20034;-77
2021/10/20 10:10:28;;;;;;;0.30;0.30;;;20.00;99.90;;;;;;4927696;29;20020;-77
2021/10/20 10:13:06;;;;;;;0.38;0.20;;;20.20;99.90;;;;;;4917493;29;20469;-77
2021/10/20 10:15:37;;;;;;;5.40;2.03;;;20.10;99.90;;;;;;4921262;29;20126;-78
2021/10/20 10:18:04;;;;;;;1.00;0.73;;;19.90;99.90;;;;;;4928853;29;20517;-76
2021/10/20 10:20:37;;;;;;;13.57;2.13;;;20.00;99.90;;;;;;4935445;29;20035;-76
2021/10/20 10:23:06;;;;;;;1.48;1.38;;;20.10;99.90;;;;;;4935733;29;20105;-77
2021/10/20 10:25:39;;;;;;;0.20;0.20;;;20.10;99.90;;;;;;4931131;29;20118;-77
2021/10/20 10:28:17;;;;;;;0.10;0.10;;;20.10;99.90;;;;;;4929688;29;20023;-79
2021/10/20 10:30:50;;;;;;;2.22;0.45;;;20.40;99.90;;;;;;4945714;29;20027;-79
2021/10/20 10:33:23;;;;;;;2.75;1.95;;;20.70;99.90;;;;;;4937483;29;20122;-78
2021/10/20 10:36:24;;;;;;;0.17;0.17;;;20.60;99.90;;;;;;4930187;29;20059;-79
2021/10/20 10:39:10;;;;;;;1.30;0.68;;;20.50;99.90;;;;;;4865739;29;20091;-80
2021/10/20 10:41:48;;;;;;;4.22;1.20;;;20.20;99.90;;;;;;4873969;29;20045;-82
2021/10/20 10:44:25;;;;;;;0.25;0.25;;;20.10;99.90;;;;;;4874070;29;20041;-81
2021/10/20 10:47:28;;;;;;;0.88;0.85;;;19.90;99.90;;;;;;4875988;29;20040;-79
2021/10/20 10:49:56;;;;;;;0.20;0.20;;;19.80;99.90;;;;;;4874582;29;20033;-80
2021/10/20 10:52:33;;;;;;;1.00;0.88;;;19.80;99.90;;;;;;4884815;29;20127;-80
2021/10/20 10:55:20;;;;;;;0.10;0.10;;;19.80;99.90;;;;;;4871587;29;20091;-81
2021/10/20 10:57:57;;;;;;;0.77;0.77;;;19.80;99.90;;;;;;4872303;29;20041;-79
2021/10/20 11:00:25;;;;;;;3.80;0.13;;;19.60;99.90;;;;;;4883902;29;20560;-79
2021/10/20 11:02:56;;;;;;;0.75;0.45;;;19.50;99.90;;;;;;4881619;29;20116;-78
2021/10/20 11:05:22;;;;;;;1.88;0.60;;;19.40;99.90;;;;;;4874537;29;20037;-78
2021/10/20 11:07:50;;;;;;;0.93;0.63;;;19.30;99.90;;;;;;4865187;29;20025;-77
2021/10/20 11:10:17;;;;;;;0.50;0.47;;;19.30;99.90;;;;;;4866079;29;20037;-78
2021/10/20 11:12:47;;;;;;;0.13;0.13;;;19.20;99.90;;;;;;4908297;29;20040;-79
2021/10/20 11:15:14;;;;;;;0.80;0.77;;;19.30;99.90;;;;;;4932628;29;20047;-78
2021/10/20 11:17:40;;;;;;;0.20;0.20;;;19.20;99.90;;;;;;4930961;29;20106;-79
2021/10/20 11:20:12;;;;;;;11.45;0.80;;;19.20;99.90;;;;;;4932979;29;20036;-79
2021/10/20 11:22:38;;;;;;;1.13;0.82;;;19.20;99.90;;;;;;4928809;29;20106;-78
2021/10/20 11:25:09;;;;;;;0.88;0.82;;;19.30;99.90;;;;;;4930056;29;20139;-80
2021/10/20 11:27:37;;;;;;;0.13;0.13;;;19.70;99.90;;;;;;4935940;29;20490;-77
2021/10/20 11:30:05;;;;;;;0.20;0.20;;;20.00;99.90;;;;;;4933340;29;20024;-80
2021/10/20 11:32:31;;;;;;;1.25;0.10;;;20.30;99.90;;;;;;4934241;29;20043;-80
2021/10/20 11:34:56;;;;;;;1.52;0.38;;;20.30;99.90;;;;;;4933344;29;20035;-78
2021/10/20 11:37:24;;;;;;;2.45;1.10;;;20.20;99.90;;;;;;4934482;29;20534;-80
2021/10/20 11:39:57;;;;;;;1.20;0.88;;;20.40;99.90;;;;;;4925641;29;20383;-79
2021/10/20 11:42:24;;;;;;;0.90;0.47;;;20.50;99.90;;;;;;4930102;29;20039;-79
2021/10/20 11:44:52;;;;;;;0.95;0.63;;;20.70;99.90;;;;;;4935460;29;20020;-78
2021/10/20 11:47:18;;;;;;;0.65;0.25;;;20.80;99.90;;;;;;4936741;29;20038;-77
2021/10/20 11:49:50;;;;;;;1.15;1.05;;;20.80;99.90;;;;;;4932085;29;20034;-77
2021/10/20 11:52:18;;;;;;;0.70;0.70;;;21.10;99.90;;;;;;4932562;29;20502;-76
2021/10/20 11:54:44;;;;;;;21.08;0.88;;;20.50;99.90;;;;;;4941570;29;20035;-76
2021/10/20 11:57:09;;;;;;;0.22;0.22;;;20.10;99.90;;;;;;4931039;29;21544;-74
2021/10/20 11:59:37;;;;;;;4.65;1.42;;;20.00;99.90;;;;;;4919960;29;20035;-74
2021/10/20 12:02:04;;;;;;;0.55;0.55;;;19.90;99.90;;;;;;4933278;29;20481;-75
2021/10/20 12:04:30;;;;;;;1.52;0.43;;;20.00;99.90;;;;;;4932129;29;20024;-75
2021/10/20 12:07:07;;;;;;;1.95;1.33;;;20.10;99.90;;;;;;4934548;29;20039;-75
2021/10/20 12:09:33;;;;;;;1.08;0.30;;;20.40;99.90;;;;;;4930546;29;20035;-76
2021/10/20 12:12:01;;;;;;;0.43;0.43;;;20.10;99.90;;;;;;4935826;29;20449;-76
2021/10/20 12:14:39;;;;;;;7.47;0.35;;;19.80;99.90;;;;;;4934514;29;20030;-77
2021/10/20 12:17:07;;;;;;;0.40;0.40;;;19.60;99.90;;;;;;4929818;29;20517;-76
2021/10/20 12:19:38;;;;;;;0.38;0.38;;;19.60;99.90;;;;;;4934331;29;20039;-74
2021/10/20 12:22:14;;;;;;;0.22;0.22;;;19.60;99.90;;;;;;4933540;29;20058;-75
2021/10/20 12:24:45;;;;;;;0.08;0.08;;;19.40;99.90;;;;;;4934247;29;20082;-74
2021/10/20 12:27:11;;;;;;;1.45;0.32;;;19.40;99.90;;;;;;4930779;29;20047;-75
2021/10/20 12:29:40;;;;;;;0.17;0.17;;;19.70;99.90;;;;;;4934400;29;20039;-75
2021/10/20 12:32:16;;;;;;;3.50;0.88;;;19.80;99.90;;;;;;4931275;29;20024;-75
2021/10/20 12:35:03;;;;;;;1.80;0.28;;;20.20;99.90;;;;;;4929603;29;20035;-75
2021/10/20 12:37:35;;;;;;;0.80;0.75;;;20.40;99.90;;;;;;4895350;29;20474;-77
2021/10/20 12:40:12;;;;;;;0.50;0.50;;;20.20;99.90;;;;;;4894590;29;20362;-76
2021/10/20 12:42:46;;;;;;;2.20;0.57;;;20.10;99.90;;;;;;4894346;29;20332;-75
2021/10/20 12:45:13;;;;;;;4.05;0.73;;;20.30;99.90;;;;;;4894234;29;20047;-74
2021/10/20 12:47:45;;;;;;;0.30;0.20;;;20.10;99.90;;;;;;4896190;29;20407;-75